createdAt,value
2023-03-26T00:02:41.309Z,94.03
2023-03-26T00:07:42.781Z,94.01
2023-03-26T00:12:44.254Z,93.75
2023-03-26T00:17:48.644Z,93.69
2023-03-26T00:22:50.878Z,93.38
2023-03-26T00:27:52.480Z,93.81
2023-03-26T00:32:54.160Z,94.08
2023-03-26T00:37:55.797Z,93.64
2023-03-26T00:42:57.234Z,93.36
2023-03-26T00:47:58.712Z,94.41
2023-03-26T00:53:00.151Z,94.18
2023-03-26T00:58:01.783Z,93.59
2023-03-26T01:03:05.080Z,93.82
2023-03-26T01:08:22.622Z,93.85
2023-03-26T01:13:25.062Z,93.28
2023-03-26T01:18:26.577Z,93.53
2023-03-26T01:23:39.337Z,93.14
2023-03-26T01:28:41.471Z,92.89
2023-03-26T01:33:57.027Z,93.13
2023-03-26T01:39:09.654Z,92.88
2023-03-26T01:44:46.330Z,92.11
2023-03-26T01:49:48.467Z,92.33
2023-03-26T01:54:50.229Z,91.50
2023-03-26T02:00:11.451Z,92.08
2023-03-26T02:05:37.719Z,92.17
2023-03-26T02:10:44.262Z,93.07
2023-03-26T02:16:16.771Z,93.78
2023-03-26T02:21:21.551Z,93.36
2023-03-26T02:26:24.391Z,93.11
2023-03-26T02:31:35.693Z,93.17
2023-03-26T02:36:37.678Z,93.87
2023-03-26T02:41:40.170Z,93.74
2023-03-26T02:46:44.500Z,93.03
2023-03-26T02:52:06.324Z,93.05
2023-03-26T02:57:09.189Z,94.12
2023-03-26T03:02:29.386Z,93.57
2023-03-26T03:07:38.858Z,94.09
2023-03-26T03:12:41.612Z,94.21
2023-03-26T03:17:43.139Z,93.85
2023-03-26T03:22:44.655Z,94.47
2023-03-26T03:27:46.257Z,94.68
2023-03-26T03:32:48.795Z,95.42
2023-03-26T03:37:56.935Z,95.40
2023-03-26T03:42:58.434Z,95.68
2023-03-26T03:48:09.762Z,95.64
2023-03-26T03:53:16.043Z,96.43
2023-03-26T03:58:22.639Z,95.95
2023-03-26T04:03:34.179Z,96.13
2023-03-26T04:08:37.193Z,96.44
2023-03-26T04:13:41.011Z,96.89
2023-03-26T04:19:03.825Z,96.77
2023-03-26T04:24:07.123Z,96.71
2023-03-26T04:29:30.555Z,95.90
2023-03-26T04:34:34.124Z,95.89
2023-03-26T04:39:44.861Z,95.72
2023-03-26T04:45:11.237Z,95.58
2023-03-26T04:50:14.813Z,95.73
2023-03-26T04:55:25.561Z,95.38
2023-03-26T05:00:36.753Z,95.28
2023-03-26T05:05:39.306Z,94.81
2023-03-26T05:10:41.833Z,94.47
2023-03-26T05:15:56.313Z,94.33
2023-03-26T05:21:11.133Z,94.59
2023-03-26T05:26:14.135Z,94.19
2023-03-26T05:31:18.507Z,94.40
2023-03-26T05:36:23.994Z,94.40
2023-03-26T05:41:37.276Z,95.00
2023-03-26T05:46:39.600Z,94.81
2023-03-26T05:51:42.323Z,95.42
2023-03-26T05:57:00.749Z,95.52
2023-03-26T06:02:21.024Z,95.95
2023-03-26T06:07:41.174Z,96.95
2023-03-26T06:12:49.668Z,96.89
2023-03-26T06:17:51.993Z,96.75
2023-03-26T06:23:25.635Z,97.09
2023-03-26T06:28:36.498Z,96.28
2023-03-26T06:34:01.014Z,96.79
2023-03-26T06:39:07.789Z,96.46
2023-03-26T06:44:11.542Z,96.23
2023-03-26T06:49:31.742Z,96.24
2023-03-26T06:55:01.810Z,96.06
2023-03-26T07:00:24.409Z,96.57
2023-03-26T07:05:44.534Z,96.01
2023-03-26T07:11:04.859Z,95.99
2023-03-26T07:16:28.741Z,95.24
2023-03-26T07:22:03.104Z,95.28
2023-03-26T07:27:37.454Z,95.65
2023-03-26T07:32:51.073Z,96.03
2023-03-26T07:38:38.350Z,96.45
2023-03-26T07:44:09.289Z,95.77
2023-03-26T07:49:31.381Z,95.49
2023-03-26T07:54:52.254Z,95.93
2023-03-26T08:00:17.679Z,96.33
2023-03-26T08:05:40.351Z,96.05
2023-03-26T08:11:04.885Z,95.27
2023-03-26T08:16:31.852Z,94.64
2023-03-26T08:22:02.240Z,95.09
2023-03-26T08:27:13.418Z,94.97
2023-03-26T08:32:17.431Z,95.17
2023-03-26T08:37:18.858Z,94.86
2023-03-26T08:42:44.620Z,94.68
2023-03-26T08:48:07.393Z,94.94
2023-03-26T08:53:31.022Z,95.86
2023-03-26T08:58:54.260Z,96.21
2023-03-26T09:04:16.125Z,95.32
2023-03-26T09:09:39.844Z,94.35
2023-03-26T09:15:19.160Z,94.95
2023-03-26T09:20:23.286Z,94.84
2023-03-26T09:25:46.113Z,94.73
2023-03-26T09:30:57.062Z,95.06
2023-03-26T09:36:19.709Z,95.91
2023-03-26T09:41:29.361Z,95.33
2023-03-26T09:46:46.706Z,93.68
2023-03-26T09:52:06.558Z,94.09
2023-03-26T09:57:21.773Z,93.85
2023-03-26T10:03:02.652Z,94.11
2023-03-26T10:08:32.657Z,93.61
2023-03-26T10:13:55.774Z,94.14
2023-03-26T10:19:38.505Z,93.40
2023-03-26T10:24:52.989Z,93.48
2023-03-26T10:30:09.735Z,93.41
2023-03-26T10:35:23.407Z,92.81
2023-03-26T10:40:35.631Z,91.63
2023-03-26T10:46:22.053Z,90.49
2023-03-26T10:51:46.750Z,89.31
2023-03-26T10:56:50.939Z,89.02
2023-03-26T11:02:01.168Z,88.33
2023-03-26T11:07:46.858Z,86.63
2023-03-26T11:13:15.154Z,86.46
2023-03-26T11:18:59.236Z,88.12
2023-03-26T11:24:38.368Z,86.67
2023-03-26T11:29:48.828Z,87.89
2023-03-26T11:34:56.418Z,86.54
2023-03-26T11:40:02.164Z,88.01
2023-03-26T11:45:07.083Z,86.65
2023-03-26T11:50:18.613Z,87.28
2023-03-26T11:55:21.064Z,87.08
2023-03-26T12:00:27.192Z,86.74
2023-03-26T12:05:36.471Z,85.00
2023-03-26T12:10:42.543Z,86.60
2023-03-26T12:15:46.171Z,87.01
2023-03-26T12:20:49.307Z,87.20
2023-03-26T12:26:11.929Z,85.93
2023-03-26T12:31:20.183Z,85.61
2023-03-26T12:36:31.424Z,86.06
2023-03-26T12:44:43.720Z,86.83
2023-03-26T12:47:56.986Z,85.08
2023-03-26T12:52:56.687Z,86.26
2023-03-26T12:58:47.781Z,87.12
2023-03-26T13:03:59.450Z,86.86
2023-03-26T13:09:25.225Z,86.30
2023-03-26T13:14:42.188Z,84.68
2023-03-26T13:20:01.650Z,83.79
2023-03-26T13:25:21.367Z,84.03
2023-03-26T13:30:32.991Z,84.79
2023-03-26T13:36:00.694Z,83.60
2023-03-26T13:41:38.937Z,82.90
2023-03-26T13:46:48.807Z,83.94
2023-03-26T13:51:58.417Z,84.33
2023-03-26T13:57:07.768Z,85.14
2023-03-26T14:02:15.948Z,85.78
2023-03-26T14:08:01.407Z,85.92
2023-03-26T14:13:15.989Z,84.73
2023-03-26T14:18:51.465Z,85.88
2023-03-26T14:24:01.862Z,87.24
2023-03-26T14:29:12.278Z,87.63
2023-03-26T14:34:33.068Z,88.18
2023-03-26T14:39:58.030Z,87.79
2023-03-26T14:45:30.530Z,88.32
2023-03-26T14:51:01.475Z,88.49
2023-03-26T14:56:57.105Z,88.38
2023-03-26T15:02:25.111Z,88.07
2023-03-26T15:07:47.806Z,88.39
2023-03-26T15:13:03.429Z,88.51
2023-03-26T15:18:56.650Z,88.33
2023-03-26T15:24:04.102Z,88.55
2023-03-26T15:29:36.774Z,88.80
2023-03-26T15:34:56.990Z,88.73
2023-03-26T15:40:08.049Z,89.60
2023-03-26T15:45:37.749Z,89.54
2023-03-26T15:50:58.341Z,89.56
2023-03-26T15:56:02.937Z,90.25
2023-03-26T16:01:26.442Z,89.75
2023-03-26T16:06:48.134Z,90.00
2023-03-26T16:11:58.091Z,90.17
2023-03-26T16:17:01.953Z,89.73
2023-03-26T16:22:14.441Z,90.11
2023-03-26T16:27:16.085Z,90.49
2023-03-26T16:32:28.639Z,89.36
2023-03-26T16:37:36.456Z,89.48
2023-03-26T16:43:03.129Z,89.80
2023-03-26T16:48:19.652Z,89.69
2023-03-26T16:53:58.149Z,90.10
2023-03-26T16:59:07.196Z,90.13
2023-03-26T17:04:23.496Z,89.99
2023-03-26T17:09:55.643Z,90.33
2023-03-26T17:15:10.870Z,89.55
2023-03-26T17:20:36.756Z,89.52
2023-03-26T17:25:53.269Z,89.25
2023-03-26T17:31:09.843Z,90.35
2023-03-26T17:36:11.455Z,90.90
2023-03-26T17:41:34.793Z,91.44
2023-03-26T17:46:38.947Z,90.52
2023-03-26T17:51:48.511Z,90.11
2023-03-26T17:56:53.033Z,90.89
2023-03-26T18:01:59.006Z,91.12
2023-03-26T18:07:41.714Z,90.49
2023-03-26T18:13:05.102Z,90.58
2023-03-26T18:18:22.591Z,90.58
2023-03-26T18:23:37.601Z,90.84
2023-03-26T18:28:44.802Z,90.40
2023-03-26T18:33:54.445Z,90.92
2023-03-26T18:38:58.399Z,91.17
2023-03-26T18:44:03.903Z,91.05
2023-03-26T18:49:06.322Z,90.27
2023-03-26T18:54:12.990Z,90.49
2023-03-26T18:59:28.102Z,90.66
2023-03-26T19:04:33.310Z,91.27
2023-03-26T19:09:34.842Z,91.10
2023-03-26T19:14:53.392Z,90.87
2023-03-26T19:19:56.045Z,90.88
2023-03-26T19:25:02.554Z,90.68
2023-03-26T19:30:04.316Z,90.38
2023-03-26T19:35:20.783Z,90.71
2023-03-26T19:40:30.063Z,91.32
2023-03-26T19:45:34.142Z,90.14
2023-03-26T19:50:41.946Z,90.56
2023-03-26T19:55:53.422Z,90.70
2023-03-26T20:00:56.016Z,90.91
2023-03-26T20:05:57.701Z,90.92
2023-03-26T20:11:00.357Z,90.88
2023-03-26T20:16:13.087Z,90.54
2023-03-26T20:21:14.679Z,91.09
2023-03-26T20:26:16.524Z,91.28
2023-03-26T20:31:24.840Z,90.83
2023-03-26T20:36:34.309Z,90.94
2023-03-26T20:41:46.067Z,90.31
2023-03-26T20:46:48.885Z,90.73
2023-03-26T20:51:50.563Z,91.22
2023-03-26T20:56:53.436Z,90.57
2023-03-26T21:01:56.498Z,91.15
2023-03-26T21:07:10.851Z,90.87
2023-03-26T21:12:29.919Z,91.04
2023-03-26T21:17:31.718Z,91.43
2023-03-26T21:22:58.067Z,90.84
2023-03-26T21:28:07.694Z,90.91
2023-03-26T21:33:09.559Z,91.63
2023-03-26T21:38:11.778Z,91.67
2023-03-26T21:43:13.546Z,91.26
2023-03-26T21:48:18.165Z,91.08
2023-03-26T21:53:19.858Z,91.20
2023-03-26T21:58:26.705Z,90.59
2023-03-26T22:03:37.559Z,91.01
2023-03-26T22:08:41.307Z,90.91
2023-03-26T22:13:43.522Z,91.21
2023-03-26T22:18:44.905Z,91.36
2023-03-26T22:23:50.118Z,91.40
2023-03-26T22:28:51.734Z,90.45
2023-03-26T22:33:54.470Z,90.95
2023-03-26T22:38:56.587Z,90.76
2023-03-26T22:44:09.359Z,90.14
2023-03-26T22:49:14.633Z,90.85
2023-03-26T22:54:16.132Z,90.45
2023-03-26T22:59:17.807Z,90.76
2023-03-26T23:04:31.549Z,90.69
2023-03-26T23:09:33.702Z,90.98
2023-03-26T23:14:36.097Z,90.53
2023-03-26T23:19:38.953Z,90.12
2023-03-26T23:24:40.289Z,91.38
2023-03-26T23:29:42.148Z,90.49
2023-03-26T23:34:52.092Z,90.59
2023-03-26T23:39:53.895Z,90.96
2023-03-26T23:44:56.692Z,90.64
2023-03-26T23:49:58.130Z,91.16
2023-03-26T23:55:02.386Z,90.95
